Harnell Park, Minnesota
Current Conditions -  °F | °C
As of 1:55 PM on Wednesday 28 Jan 2015 (Local Time) from KDLH Reporting Station
Haze Haze  
Wind Chill: 18°   Ceiling: 1000
Heat Index: 28°   Visibility: 6mi
Dew Point: 22°   Wind: 12mph
Humidity: 78%   Direction: 160°SSE
Pressure: 29.82"   Gusts: NA
Location:  46.8859°N, 92.4258°W
Report Text: KDLH 281955Z 16010KT 6SM HZ OVC010 M02/M06 A2982 RMK AO2 SLP119 T10221056
Loading
Personal Weather Stations






























Interactive Weather Map New forecast layout! Learn more

10-Day Weather Forecast

Advertisements
Track Severe Weather on mobile